sensor_id;sensor_type;location;lat;lon;timestamp;temperature;humidity
21282;DHT22;10800;53.096;18.328;2022-11-25T00:01:55;0.90;99.90
21282;DHT22;10800;53.096;18.328;2022-11-25T00:07:00;0.90;99.90
21282;DHT22;10800;53.096;18.328;2022-11-25T00:12:06;0.90;99.90
21282;DHT22;10800;53.096;18.328;2022-11-25T00:17:11;0.90;99.90
21282;DHT22;10800;53.096;18.328;2022-11-25T00:22:16;0.90;99.90
21282;DHT22;10800;53.096;18.328;2022-11-25T00:27:22;0.90;99.90
21282;DHT22;10800;53.096;18.328;2022-11-25T00:32:28;0.90;99.90
21282;DHT22;10800;53.096;18.328;2022-11-25T00:37:33;0.90;99.90
21282;DHT22;10800;53.096;18.328;2022-11-25T00:42:38;0.90;99.90
21282;DHT22;10800;53.096;18.328;2022-11-25T00:48:02;0.90;99.90
21282;DHT22;10800;53.096;18.328;2022-11-25T00:53:07;0.90;99.90
21282;DHT22;10800;53.096;18.328;2022-11-25T00:58:12;1.00;99.90
21282;DHT22;10800;53.096;18.328;2022-11-25T01:03:17;1.00;99.90
21282;DHT22;10800;53.096;18.328;2022-11-25T01:08:23;1.00;99.90
21282;DHT22;10800;53.096;18.328;2022-11-25T01:13:28;1.00;99.90
21282;DHT22;10800;53.096;18.328;2022-11-25T01:18:34;1.00;99.90
21282;DHT22;10800;53.096;18.328;2022-11-25T01:23:40;1.00;99.90
21282;DHT22;10800;53.096;18.328;2022-11-25T01:28:47;1.10;99.90
21282;DHT22;10800;53.096;18.328;2022-11-25T01:33:55;1.10;99.90
21282;DHT22;10800;53.096;18.328;2022-11-25T01:39:01;1.10;99.90
21282;DHT22;10800;53.096;18.328;2022-11-25T01:44:13;1.10;99.90
21282;DHT22;10800;53.096;18.328;2022-11-25T01:49:31;1.10;99.90
21282;DHT22;10800;53.096;18.328;2022-11-25T01:54:36;1.10;99.90
21282;DHT22;10800;53.096;18.328;2022-11-25T01:59:43;1.10;99.90
21282;DHT22;10800;53.096;18.328;2022-11-25T02:04:48;1.10;99.90
21282;DHT22;10800;53.096;18.328;2022-11-25T02:09:55;1.10;99.90
21282;DHT22;10800;53.096;18.328;2022-11-25T02:15:00;1.10;99.90
21282;DHT22;10800;53.096;18.328;2022-11-25T02:20:16;1.10;99.90
21282;DHT22;10800;53.096;18.328;2022-11-25T02:25:19;1.10;99.90
21282;DHT22;10800;53.096;18.328;2022-11-25T02:30:24;1.10;99.90
21282;DHT22;10800;53.096;18.328;2022-11-25T02:35:38;1.10;99.90
21282;DHT22;10800;53.096;18.328;2022-11-25T02:41:02;1.10;99.90
21282;DHT22;10800;53.096;18.328;2022-11-25T02:46:12;1.00;99.90
21282;DHT22;10800;53.096;18.328;2022-11-25T02:51:16;1.00;99.90
21282;DHT22;10800;53.096;18.328;2022-11-25T02:56:24;1.00;99.90
21282;DHT22;10800;53.096;18.328;2022-11-25T03:01:31;1.00;99.90
21282;DHT22;10800;53.096;18.328;2022-11-25T03:06:38;1.00;99.90
21282;DHT22;10800;53.096;18.328;2022-11-25T03:11:44;1.00;99.90
21282;DHT22;10800;53.096;18.328;2022-11-25T03:17:07;1.00;99.90
21282;DHT22;10800;53.096;18.328;2022-11-25T03:22:12;1.00;99.90
21282;DHT22;10800;53.096;18.328;2022-11-25T03:27:17;1.10;99.90
21282;DHT22;10800;53.096;18.328;2022-11-25T03:32:23;1.00;99.90
21282;DHT22;10800;53.096;18.328;2022-11-25T03:37:29;1.00;99.90
21282;DHT22;10800;53.096;18.328;2022-11-25T03:42:35;1.00;99.90
21282;DHT22;10800;53.096;18.328;2022-11-25T03:47:41;1.00;99.90
21282;DHT22;10800;53.096;18.328;2022-11-25T03:52:47;1.00;99.90
21282;DHT22;10800;53.096;18.328;2022-11-25T03:57:52;1.00;99.90
21282;DHT22;10800;53.096;18.328;2022-11-25T04:02:58;1.00;99.90
21282;DHT22;10800;53.096;18.328;2022-11-25T04:08:03;1.00;99.90
21282;DHT22;10800;53.096;18.328;2022-11-25T04:13:09;1.10;99.90
21282;DHT22;10800;53.096;18.328;2022-11-25T04:18:16;1.00;99.90
21282;DHT22;10800;53.096;18.328;2022-11-25T04:23:22;1.00;99.90
21282;DHT22;10800;53.096;18.328;2022-11-25T04:28:28;1.00;99.90
21282;DHT22;10800;53.096;18.328;2022-11-25T04:33:34;1.00;99.90
21282;DHT22;10800;53.096;18.328;2022-11-25T04:38:40;1.00;99.90
21282;DHT22;10800;53.096;18.328;2022-11-25T04:43:45;1.00;99.90
21282;DHT22;10800;53.096;18.328;2022-11-25T04:48:51;1.00;99.90
21282;DHT22;10800;53.096;18.328;2022-11-25T04:53:56;1.00;99.90
21282;DHT22;10800;53.096;18.328;2022-11-25T04:59:02;1.00;99.90
21282;DHT22;10800;53.096;18.328;2022-11-25T05:04:26;1.00;99.90
21282;DHT22;10800;53.096;18.328;2022-11-25T05:09:32;1.00;99.90
21282;DHT22;10800;53.096;18.328;2022-11-25T05:14:37;1.00;99.90
21282;DHT22;10800;53.096;18.328;2022-11-25T05:19:43;1.00;99.90
21282;DHT22;10800;53.096;18.328;2022-11-25T05:24:49;1.00;99.90
21282;DHT22;10800;53.096;18.328;2022-11-25T05:29:54;1.00;99.90
21282;DHT22;10800;53.096;18.328;2022-11-25T05:35:00;1.00;99.90
21282;DHT22;10800;53.096;18.328;2022-11-25T05:40:06;1.00;99.90
21282;DHT22;10800;53.096;18.328;2022-11-25T05:45:11;1.00;99.90
21282;DHT22;10800;53.096;18.328;2022-11-25T05:50:16;1.00;99.90
21282;DHT22;10800;53.096;18.328;2022-11-25T05:55:24;1.00;99.90
21282;DHT22;10800;53.096;18.328;2022-11-25T06:00:29;1.00;99.90
21282;DHT22;10800;53.096;18.328;2022-11-25T06:05:35;1.00;99.90
21282;DHT22;10800;53.096;18.328;2022-11-25T06:10:40;1.00;99.90
21282;DHT22;10800;53.096;18.328;2022-11-25T06:15:46;1.00;99.90
21282;DHT22;10800;53.096;18.328;2022-11-25T06:20:58;0.90;99.90
21282;DHT22;10800;53.096;18.328;2022-11-25T06:26:20;0.90;99.90
21282;DHT22;10800;53.096;18.328;2022-11-25T06:31:26;0.90;99.90
21282;DHT22;10800;53.096;18.328;2022-11-25T06:36:31;0.90;99.90
21282;DHT22;10800;53.096;18.328;2022-11-25T06:41:37;0.90;99.90
21282;DHT22;10800;53.096;18.328;2022-11-25T06:46:42;0.90;99.90
21282;DHT22;10800;53.096;18.328;2022-11-25T06:51:49;0.90;99.90
21282;DHT22;10800;53.096;18.328;2022-11-25T06:57:02;1.00;99.90
21282;DHT22;10800;53.096;18.328;2022-11-25T07:02:10;0.90;99.90
21282;DHT22;10800;53.096;18.328;2022-11-25T07:07:16;0.90;99.90
21282;DHT22;10800;53.096;18.328;2022-11-25T07:12:22;0.90;99.90
21282;DHT22;10800;53.096;18.328;2022-11-25T07:17:27;0.90;99.90
21282;DHT22;10800;53.096;18.328;2022-11-25T07:22:34;0.90;99.90
21282;DHT22;10800;53.096;18.328;2022-11-25T07:27:40;1.00;99.90
21282;DHT22;10800;53.096;18.328;2022-11-25T07:32:45;1.00;99.90
21282;DHT22;10800;53.096;18.328;2022-11-25T07:37:50;1.00;99.90
21282;DHT22;10800;53.096;18.328;2022-11-25T07:42:56;1.10;99.90
21282;DHT22;10800;53.096;18.328;2022-11-25T07:48:01;1.10;99.90
21282;DHT22;10800;53.096;18.328;2022-11-25T07:53:07;1.10;99.90
21282;DHT22;10800;53.096;18.328;2022-11-25T07:58:12;1.20;99.90
21282;DHT22;10800;53.096;18.328;2022-11-25T08:03:17;1.20;99.90
21282;DHT22;10800;53.096;18.328;2022-11-25T08:08:24;1.20;99.90
21282;DHT22;10800;53.096;18.328;2022-11-25T08:13:29;1.20;99.90
21282;DHT22;10800;53.096;18.328;2022-11-25T08:18:35;1.20;99.90
21282;DHT22;10800;53.096;18.328;2022-11-25T08:23:42;1.20;99.90
21282;DHT22;10800;53.096;18.328;2022-11-25T08:28:49;1.20;99.90
21282;DHT22;10800;53.096;18.328;2022-11-25T08:33:56;1.30;99.90
21282;DHT22;10800;53.096;18.328;2022-11-25T08:39:04;1.30;99.90
21282;DHT22;10800;53.096;18.328;2022-11-25T08:44:12;1.30;99.90
21282;DHT22;10800;53.096;18.328;2022-11-25T08:49:17;1.40;99.90
21282;DHT22;10800;53.096;18.328;2022-11-25T08:54:23;1.40;99.90
21282;DHT22;10800;53.096;18.328;2022-11-25T08:59:28;1.40;99.90
21282;DHT22;10800;53.096;18.328;2022-11-25T09:04:34;1.50;99.90
21282;DHT22;10800;53.096;18.328;2022-11-25T09:09:39;1.60;99.90
21282;DHT22;10800;53.096;18.328;2022-11-25T09:14:45;1.50;99.90
21282;DHT22;10800;53.096;18.328;2022-11-25T09:19:50;1.50;99.90
21282;DHT22;10800;53.096;18.328;2022-11-25T09:24:56;1.50;99.90
21282;DHT22;10800;53.096;18.328;2022-11-25T09:30:01;1.50;99.90
21282;DHT22;10800;53.096;18.328;2022-11-25T09:35:07;1.50;99.90
21282;DHT22;10800;53.096;18.328;2022-11-25T09:40:26;1.50;99.90
21282;DHT22;10800;53.096;18.328;2022-11-25T09:51:22;1.60;99.90
21282;DHT22;10800;53.096;18.328;2022-11-25T09:56:33;1.60;99.90
21282;DHT22;10800;53.096;18.328;2022-11-25T10:01:49;1.50;99.90
21282;DHT22;10800;53.096;18.328;2022-11-25T10:06:57;1.60;99.90
21282;DHT22;10800;53.096;18.328;2022-11-25T10:17:43;1.50;99.90
21282;DHT22;10800;53.096;18.328;2022-11-25T10:22:53;1.60;99.90
21282;DHT22;10800;53.096;18.328;2022-11-25T10:28:01;1.60;99.90
21282;DHT22;10800;53.096;18.328;2022-11-25T10:33:17;1.60;99.90
21282;DHT22;10800;53.096;18.328;2022-11-25T10:39:10;1.60;99.90
21282;DHT22;10800;53.096;18.328;2022-11-25T10:43:30;1.60;99.90
21282;DHT22;10800;53.096;18.328;2022-11-25T10:48:58;1.60;99.90
21282;DHT22;10800;53.096;18.328;2022-11-25T10:54:16;1.70;99.90
21282;DHT22;10800;53.096;18.328;2022-11-25T10:59:27;1.70;99.90
21282;DHT22;10800;53.096;18.328;2022-11-25T11:04:33;1.70;99.90
21282;DHT22;10800;53.096;18.328;2022-11-25T11:09:39;1.70;99.90
21282;DHT22;10800;53.096;18.328;2022-11-25T11:14:45;1.70;99.90
21282;DHT22;10800;53.096;18.328;2022-11-25T11:25:24;1.70;99.90
21282;DHT22;10800;53.096;18.328;2022-11-25T11:30:31;1.70;99.90
21282;DHT22;10800;53.096;18.328;2022-11-25T11:41:40;1.70;99.90
21282;DHT22;10800;53.096;18.328;2022-11-25T11:46:49;1.80;99.90
21282;DHT22;10800;53.096;18.328;2022-11-25T11:52:10;1.80;99.90
21282;DHT22;10800;53.096;18.328;2022-11-25T11:57:34;1.70;99.90
21282;DHT22;10800;53.096;18.328;2022-11-25T12:02:59;1.70;99.90
21282;DHT22;10800;53.096;18.328;2022-11-25T12:08:18;1.70;99.90
21282;DHT22;10800;53.096;18.328;2022-11-25T12:13:26;1.80;99.90
21282;DHT22;10800;53.096;18.328;2022-11-25T12:24:30;1.80;99.90
21282;DHT22;10800;53.096;18.328;2022-11-25T12:29:44;1.80;99.90
21282;DHT22;10800;53.096;18.328;2022-11-25T12:40:21;1.90;99.90
21282;DHT22;10800;53.096;18.328;2022-11-25T12:50:52;1.80;99.90
21282;DHT22;10800;53.096;18.328;2022-11-25T12:55:57;1.80;99.90
21282;DHT22;10800;53.096;18.328;2022-11-25T13:16:59;1.90;99.90
21282;DHT22;10800;53.096;18.328;2022-11-25T13:27:33;2.00;99.90
21282;DHT22;10800;53.096;18.328;2022-11-25T13:32:40;2.00;99.90
21282;DHT22;10800;53.096;18.328;2022-11-25T13:37:46;1.90;99.90
21282;DHT22;10800;53.096;18.328;2022-11-25T13:42:52;1.90;99.90
21282;DHT22;10800;53.096;18.328;2022-11-25T13:48:22;1.80;99.90
21282;DHT22;10800;53.096;18.328;2022-11-25T13:53:33;1.70;99.90
21282;DHT22;10800;53.096;18.328;2022-11-25T13:58:39;1.60;99.90
21282;DHT22;10800;53.096;18.328;2022-11-25T14:03:48;1.70;99.90
21282;DHT22;10800;53.096;18.328;2022-11-25T14:20:14;1.60;99.90
21282;DHT22;10800;53.096;18.328;2022-11-25T14:25:21;1.50;99.90
21282;DHT22;10800;53.096;18.328;2022-11-25T14:30:29;1.40;99.90
21282;DHT22;10800;53.096;18.328;2022-11-25T14:35:47;1.40;99.90
21282;DHT22;10800;53.096;18.328;2022-11-25T14:41:00;1.40;99.90
21282;DHT22;10800;53.096;18.328;2022-11-25T14:46:21;1.40;99.90
21282;DHT22;10800;53.096;18.328;2022-11-25T14:51:35;1.40;99.90
21282;DHT22;10800;53.096;18.328;2022-11-25T14:57:00;1.40;99.90
21282;DHT22;10800;53.096;18.328;2022-11-25T15:02:27;1.40;99.90
21282;DHT22;10800;53.096;18.328;2022-11-25T15:07:35;1.30;99.90
21282;DHT22;10800;53.096;18.328;2022-11-25T15:12:47;1.30;99.90
21282;DHT22;10800;53.096;18.328;2022-11-25T15:17:57;1.30;99.90
21282;DHT22;10800;53.096;18.328;2022-11-25T15:23:32;1.30;99.90
21282;DHT22;10800;53.096;18.328;2022-11-25T15:29:10;1.30;99.90
21282;DHT22;10800;53.096;18.328;2022-11-25T15:34:28;1.20;99.90
21282;DHT22;10800;53.096;18.328;2022-11-25T15:39:34;1.20;99.90
21282;DHT22;10800;53.096;18.328;2022-11-25T15:44:57;1.20;99.90
21282;DHT22;10800;53.096;18.328;2022-11-25T15:50:23;1.10;99.90
21282;DHT22;10800;53.096;18.328;2022-11-25T15:55:36;1.10;99.90
21282;DHT22;10800;53.096;18.328;2022-11-25T16:06:23;1.00;99.90
21282;DHT22;10800;53.096;18.328;2022-11-25T16:11:29;1.00;99.90
21282;DHT22;10800;53.096;18.328;2022-11-25T16:16:39;1.00;99.90
21282;DHT22;10800;53.096;18.328;2022-11-25T16:21:50;1.00;99.90
21282;DHT22;10800;53.096;18.328;2022-11-25T16:27:02;0.90;99.90
21282;DHT22;10800;53.096;18.328;2022-11-25T16:32:25;0.90;99.90
21282;DHT22;10800;53.096;18.328;2022-11-25T16:37:37;0.90;99.90
21282;DHT22;10800;53.096;18.328;2022-11-25T16:42:46;0.80;99.90
21282;DHT22;10800;53.096;18.328;2022-11-25T16:47:55;0.80;99.90
21282;DHT22;10800;53.096;18.328;2022-11-25T16:53:01;0.80;99.90
21282;DHT22;10800;53.096;18.328;2022-11-25T16:58:24;0.80;99.90
21282;DHT22;10800;53.096;18.328;2022-11-25T17:04:03;0.80;99.90
21282;DHT22;10800;53.096;18.328;2022-11-25T17:09:27;0.80;99.90
21282;DHT22;10800;53.096;18.328;2022-11-25T17:14:34;0.80;99.90
21282;DHT22;10800;53.096;18.328;2022-11-25T17:19:43;0.80;99.90
21282;DHT22;10800;53.096;18.328;2022-11-25T17:25:15;0.70;99.90
21282;DHT22;10800;53.096;18.328;2022-11-25T17:30:19;0.70;99.90
21282;DHT22;10800;53.096;18.328;2022-11-25T17:35:25;0.70;99.90
21282;DHT22;10800;53.096;18.328;2022-11-25T17:40:30;0.70;99.90
21282;DHT22;10800;53.096;18.328;2022-11-25T17:45:36;0.70;99.90
21282;DHT22;10800;53.096;18.328;2022-11-25T17:50:42;0.70;99.90
21282;DHT22;10800;53.096;18.328;2022-11-25T17:55:49;0.70;99.90
21282;DHT22;10800;53.096;18.328;2022-11-25T18:00:55;0.60;99.90
21282;DHT22;10800;53.096;18.328;2022-11-25T18:06:01;0.70;99.90
21282;DHT22;10800;53.096;18.328;2022-11-25T18:11:10;0.70;99.90
21282;DHT22;10800;53.096;18.328;2022-11-25T18:16:17;0.70;99.90
21282;DHT22;10800;53.096;18.328;2022-11-25T18:21:24;0.70;99.90
21282;DHT22;10800;53.096;18.328;2022-11-25T18:26:30;0.70;99.90
21282;DHT22;10800;53.096;18.328;2022-11-25T18:31:42;0.70;99.90
21282;DHT22;10800;53.096;18.328;2022-11-25T18:36:49;0.70;99.90
21282;DHT22;10800;53.096;18.328;2022-11-25T18:41:54;0.70;99.90
21282;DHT22;10800;53.096;18.328;2022-11-25T18:47:09;0.70;99.90
21282;DHT22;10800;53.096;18.328;2022-11-25T18:52:18;0.60;99.90
21282;DHT22;10800;53.096;18.328;2022-11-25T18:57:28;0.50;99.90
21282;DHT22;10800;53.096;18.328;2022-11-25T19:02:34;0.50;99.90
21282;DHT22;10800;53.096;18.328;2022-11-25T19:07:39;0.50;99.90
21282;DHT22;10800;53.096;18.328;2022-11-25T19:12:53;0.50;99.90
21282;DHT22;10800;53.096;18.328;2022-11-25T19:17:59;0.50;99.90
21282;DHT22;10800;53.096;18.328;2022-11-25T19:23:19;0.40;99.90
21282;DHT22;10800;53.096;18.328;2022-11-25T19:28:20;0.50;99.90
21282;DHT22;10800;53.096;18.328;2022-11-25T19:33:34;0.40;99.90
21282;DHT22;10800;53.096;18.328;2022-11-25T19:38:40;0.50;99.90
21282;DHT22;10800;53.096;18.328;2022-11-25T19:43:46;0.40;99.90
21282;DHT22;10800;53.096;18.328;2022-11-25T19:48:58;0.40;99.90
21282;DHT22;10800;53.096;18.328;2022-11-25T19:53:59;0.40;99.90
21282;DHT22;10800;53.096;18.328;2022-11-25T19:59:04;0.40;99.90
21282;DHT22;10800;53.096;18.328;2022-11-25T20:04:18;0.30;99.90
21282;DHT22;10800;53.096;18.328;2022-11-25T20:09:22;0.30;99.90
21282;DHT22;10800;53.096;18.328;2022-11-25T20:14:30;0.20;99.90
21282;DHT22;10800;53.096;18.328;2022-11-25T20:19:40;0.10;99.90
21282;DHT22;10800;53.096;18.328;2022-11-25T20:24:46;0.10;99.90
21282;DHT22;10800;53.096;18.328;2022-11-25T20:29:52;0.00;99.90
21282;DHT22;10800;53.096;18.328;2022-11-25T20:34:58;-0.10;99.90
21282;DHT22;10800;53.096;18.328;2022-11-25T20:40:08;-0.10;99.90
21282;DHT22;10800;53.096;18.328;2022-11-25T20:45:18;-0.20;99.90
21282;DHT22;10800;53.096;18.328;2022-11-25T20:50:23;-0.20;99.90
21282;DHT22;10800;53.096;18.328;2022-11-25T20:55:29;-0.20;99.90
21282;DHT22;10800;53.096;18.328;2022-11-25T21:00:36;-0.20;99.90
21282;DHT22;10800;53.096;18.328;2022-11-25T21:05:42;-0.30;99.90
21282;DHT22;10800;53.096;18.328;2022-11-25T21:10:55;-0.30;99.90
21282;DHT22;10800;53.096;18.328;2022-11-25T21:16:00;-0.40;99.90
21282;DHT22;10800;53.096;18.328;2022-11-25T21:21:22;-0.40;99.90
21282;DHT22;10800;53.096;18.328;2022-11-25T21:26:22;-0.50;99.90
21282;DHT22;10800;53.096;18.328;2022-11-25T21:31:29;-0.50;99.90
21282;DHT22;10800;53.096;18.328;2022-11-25T21:36:35;-0.50;99.90
21282;DHT22;10800;53.096;18.328;2022-11-25T21:41:41;-0.50;99.90
21282;DHT22;10800;53.096;18.328;2022-11-25T21:46:46;-0.60;99.90
21282;DHT22;10800;53.096;18.328;2022-11-25T21:51:52;-0.70;99.90
21282;DHT22;10800;53.096;18.328;2022-11-25T21:56:58;-0.80;99.90
21282;DHT22;10800;53.096;18.328;2022-11-25T22:02:15;-0.90;99.90
21282;DHT22;10800;53.096;18.328;2022-11-25T22:07:24;-0.90;99.90
21282;DHT22;10800;53.096;18.328;2022-11-25T22:12:31;-0.90;99.90
21282;DHT22;10800;53.096;18.328;2022-11-25T22:17:39;-1.00;99.90
21282;DHT22;10800;53.096;18.328;2022-11-25T22:22:44;-1.10;99.90
21282;DHT22;10800;53.096;18.328;2022-11-25T22:27:50;-1.20;99.90
21282;DHT22;10800;53.096;18.328;2022-11-25T22:33:00;-1.30;99.90
21282;DHT22;10800;53.096;18.328;2022-11-25T22:38:16;-1.40;99.90
21282;DHT22;10800;53.096;18.328;2022-11-25T22:43:25;-1.40;99.90
21282;DHT22;10800;53.096;18.328;2022-11-25T22:48:35;-1.40;99.90
21282;DHT22;10800;53.096;18.328;2022-11-25T22:53:41;-1.50;99.90
21282;DHT22;10800;53.096;18.328;2022-11-25T22:58:46;-1.60;99.90
21282;DHT22;10800;53.096;18.328;2022-11-25T23:03:52;-1.60;99.90
21282;DHT22;10800;53.096;18.328;2022-11-25T23:08:57;-1.60;99.90
21282;DHT22;10800;53.096;18.328;2022-11-25T23:14:02;-1.60;99.90
21282;DHT22;10800;53.096;18.328;2022-11-25T23:19:14;-1.60;99.90
21282;DHT22;10800;53.096;18.328;2022-11-25T23:24:20;-1.70;99.90
21282;DHT22;10800;53.096;18.328;2022-11-25T23:29:25;-1.70;99.90
21282;DHT22;10800;53.096;18.328;2022-11-25T23:34:31;-1.80;99.90
21282;DHT22;10800;53.096;18.328;2022-11-25T23:39:36;-1.80;99.90
21282;DHT22;10800;53.096;18.328;2022-11-25T23:44:42;-1.80;99.90
21282;DHT22;10800;53.096;18.328;2022-11-25T23:49:50;-1.80;99.90
21282;DHT22;10800;53.096;18.328;2022-11-25T23:54:56;-1.80;99.90
